sensor_id;sensor_type;location;lat;lon;timestamp;temperature;humidity
23335;DHT22;11839;48.598;8.870;2023-02-04T00:02:23;9.80;99.90
23335;DHT22;11839;48.598;8.870;2023-02-04T00:04:50;9.70;99.90
23335;DHT22;11839;48.598;8.870;2023-02-04T00:07:18;9.90;99.90
23335;DHT22;11839;48.598;8.870;2023-02-04T00:09:45;9.60;99.90
23335;DHT22;11839;48.598;8.870;2023-02-04T00:12:12;9.50;99.90
23335;DHT22;11839;48.598;8.870;2023-02-04T00:14:39;9.50;99.90
23335;DHT22;11839;48.598;8.870;2023-02-04T00:17:05;9.40;99.90
23335;DHT22;11839;48.598;8.870;2023-02-04T00:19:35;9.40;99.90
23335;DHT22;11839;48.598;8.870;2023-02-04T00:22:02;9.60;99.90
23335;DHT22;11839;48.598;8.870;2023-02-04T00:24:30;9.30;99.90
23335;DHT22;11839;48.598;8.870;2023-02-04T00:26:57;9.20;99.90
23335;DHT22;11839;48.598;8.870;2023-02-04T00:29:24;9.30;99.90
23335;DHT22;11839;48.598;8.870;2023-02-04T00:31:50;9.40;99.90
23335;DHT22;11839;48.598;8.870;2023-02-04T00:34:17;9.30;99.90
23335;DHT22;11839;48.598;8.870;2023-02-04T00:36:45;9.30;99.90
23335;DHT22;11839;48.598;8.870;2023-02-04T00:39:12;9.30;99.90
23335;DHT22;11839;48.598;8.870;2023-02-04T00:41:40;9.20;99.90
23335;DHT22;11839;48.598;8.870;2023-02-04T00:44:06;9.20;99.90
23335;DHT22;11839;48.598;8.870;2023-02-04T00:46:33;9.10;99.90
23335;DHT22;11839;48.598;8.870;2023-02-04T00:49:00;9.10;99.90
23335;DHT22;11839;48.598;8.870;2023-02-04T00:51:27;9.00;99.90
23335;DHT22;11839;48.598;8.870;2023-02-04T00:53:53;9.10;99.90
23335;DHT22;11839;48.598;8.870;2023-02-04T00:56:20;9.20;99.90
23335;DHT22;11839;48.598;8.870;2023-02-04T00:58:48;8.90;99.90
23335;DHT22;11839;48.598;8.870;2023-02-04T01:01:15;8.90;99.90
23335;DHT22;11839;48.598;8.870;2023-02-04T01:03:42;8.90;99.90
23335;DHT22;11839;48.598;8.870;2023-02-04T01:06:08;9.00;99.90
23335;DHT22;11839;48.598;8.870;2023-02-04T01:08:35;9.30;99.90
23335;DHT22;11839;48.598;8.870;2023-02-04T01:11:02;9.30;99.90
23335;DHT22;11839;48.598;8.870;2023-02-04T01:13:29;9.50;99.90
23335;DHT22;11839;48.598;8.870;2023-02-04T01:15:57;9.40;99.90
23335;DHT22;11839;48.598;8.870;2023-02-04T01:18:24;9.20;99.90
23335;DHT22;11839;48.598;8.870;2023-02-04T01:20:51;9.10;99.90
23335;DHT22;11839;48.598;8.870;2023-02-04T01:23:18;9.00;99.90
23335;DHT22;11839;48.598;8.870;2023-02-04T01:25:44;9.10;99.90
23335;DHT22;11839;48.598;8.870;2023-02-04T01:28:11;9.00;99.90
23335;DHT22;11839;48.598;8.870;2023-02-04T01:30:38;9.10;99.90
23335;DHT22;11839;48.598;8.870;2023-02-04T01:33:06;9.00;99.90
23335;DHT22;11839;48.598;8.870;2023-02-04T01:35:32;9.30;99.90
23335;DHT22;11839;48.598;8.870;2023-02-04T01:37:59;9.30;99.90
23335;DHT22;11839;48.598;8.870;2023-02-04T01:40:26;9.30;99.90
23335;DHT22;11839;48.598;8.870;2023-02-04T01:42:53;9.10;99.90
23335;DHT22;11839;48.598;8.870;2023-02-04T01:45:20;9.00;99.90
23335;DHT22;11839;48.598;8.870;2023-02-04T01:47:47;9.00;99.90
23335;DHT22;11839;48.598;8.870;2023-02-04T01:50:16;9.10;99.90
23335;DHT22;11839;48.598;8.870;2023-02-04T01:52:44;8.90;99.90
23335;DHT22;11839;48.598;8.870;2023-02-04T01:55:17;9.00;99.90
23335;DHT22;11839;48.598;8.870;2023-02-04T01:57:45;9.00;99.90
23335;DHT22;11839;48.598;8.870;2023-02-04T02:00:15;9.20;99.90
23335;DHT22;11839;48.598;8.870;2023-02-04T02:02:44;9.40;99.90
23335;DHT22;11839;48.598;8.870;2023-02-04T02:05:15;9.00;99.90
23335;DHT22;11839;48.598;8.870;2023-02-04T02:07:43;9.10;99.90
23335;DHT22;11839;48.598;8.870;2023-02-04T02:10:11;9.00;99.90
23335;DHT22;11839;48.598;8.870;2023-02-04T02:12:39;8.80;99.90
23335;DHT22;11839;48.598;8.870;2023-02-04T02:15:08;9.00;99.90
23335;DHT22;11839;48.598;8.870;2023-02-04T02:17:36;9.30;99.90
23335;DHT22;11839;48.598;8.870;2023-02-04T02:20:06;9.60;99.90
23335;DHT22;11839;48.598;8.870;2023-02-04T02:22:37;9.70;99.90
23335;DHT22;11839;48.598;8.870;2023-02-04T02:25:10;9.80;99.90
23335;DHT22;11839;48.598;8.870;2023-02-04T02:27:37;9.90;99.90
23335;DHT22;11839;48.598;8.870;2023-02-04T02:30:05;9.90;99.90
23335;DHT22;11839;48.598;8.870;2023-02-04T02:32:32;9.80;99.90
23335;DHT22;11839;48.598;8.870;2023-02-04T02:34:59;9.90;99.90
23335;DHT22;11839;48.598;8.870;2023-02-04T02:37:26;9.80;99.90
23335;DHT22;11839;48.598;8.870;2023-02-04T02:39:55;9.50;99.90
23335;DHT22;11839;48.598;8.870;2023-02-04T02:42:23;9.60;99.90
23335;DHT22;11839;48.598;8.870;2023-02-04T02:44:50;9.70;99.90
23335;DHT22;11839;48.598;8.870;2023-02-04T02:47:20;9.90;99.90
23335;DHT22;11839;48.598;8.870;2023-02-04T02:49:50;9.80;99.90
23335;DHT22;11839;48.598;8.870;2023-02-04T02:52:17;9.70;99.90
23335;DHT22;11839;48.598;8.870;2023-02-04T02:54:44;9.90;99.90
23335;DHT22;11839;48.598;8.870;2023-02-04T02:57:13;9.80;99.90
23335;DHT22;11839;48.598;8.870;2023-02-04T02:59:42;9.90;99.90
23335;DHT22;11839;48.598;8.870;2023-02-04T03:02:10;9.70;99.90
23335;DHT22;11839;48.598;8.870;2023-02-04T03:04:41;9.70;99.90
23335;DHT22;11839;48.598;8.870;2023-02-04T03:07:10;9.70;99.90
23335;DHT22;11839;48.598;8.870;2023-02-04T03:09:38;9.90;99.90
23335;DHT22;11839;48.598;8.870;2023-02-04T03:12:05;10.00;99.90
23335;DHT22;11839;48.598;8.870;2023-02-04T03:14:32;10.10;99.90
23335;DHT22;11839;48.598;8.870;2023-02-04T03:17:02;9.90;99.90
23335;DHT22;11839;48.598;8.870;2023-02-04T03:19:30;9.70;99.90
23335;DHT22;11839;48.598;8.870;2023-02-04T03:21:58;9.90;99.90
23335;DHT22;11839;48.598;8.870;2023-02-04T03:24:25;9.90;99.90
23335;DHT22;11839;48.598;8.870;2023-02-04T03:26:52;9.90;99.90
23335;DHT22;11839;48.598;8.870;2023-02-04T03:29:19;9.90;99.90
23335;DHT22;11839;48.598;8.870;2023-02-04T03:31:46;9.70;99.90
23335;DHT22;11839;48.598;8.870;2023-02-04T03:34:14;9.60;99.90
23335;DHT22;11839;48.598;8.870;2023-02-04T03:36:41;9.10;99.90
23335;DHT22;11839;48.598;8.870;2023-02-04T03:39:07;8.90;99.90
23335;DHT22;11839;48.598;8.870;2023-02-04T03:41:34;8.90;99.90
23335;DHT22;11839;48.598;8.870;2023-02-04T03:44:01;9.10;99.90
23335;DHT22;11839;48.598;8.870;2023-02-04T03:46:27;9.10;99.90
23335;DHT22;11839;48.598;8.870;2023-02-04T03:48:54;8.90;99.90
23335;DHT22;11839;48.598;8.870;2023-02-04T03:51:22;9.10;99.90
23335;DHT22;11839;48.598;8.870;2023-02-04T03:53:49;9.20;99.90
23335;DHT22;11839;48.598;8.870;2023-02-04T03:56:16;9.20;99.90
23335;DHT22;11839;48.598;8.870;2023-02-04T03:58:43;9.20;99.90
23335;DHT22;11839;48.598;8.870;2023-02-04T04:01:09;9.00;99.90
23335;DHT22;11839;48.598;8.870;2023-02-04T04:03:36;9.10;99.90
23335;DHT22;11839;48.598;8.870;2023-02-04T04:06:03;9.10;99.90
23335;DHT22;11839;48.598;8.870;2023-02-04T04:08:34;9.30;99.90
23335;DHT22;11839;48.598;8.870;2023-02-04T04:11:01;9.30;99.90
23335;DHT22;11839;48.598;8.870;2023-02-04T04:13:27;9.00;99.90
23335;DHT22;11839;48.598;8.870;2023-02-04T04:15:54;8.80;99.90
23335;DHT22;11839;48.598;8.870;2023-02-04T04:18:21;8.70;99.90
23335;DHT22;11839;48.598;8.870;2023-02-04T04:20:48;8.70;99.90
23335;DHT22;11839;48.598;8.870;2023-02-04T04:23:14;8.20;99.90
23335;DHT22;11839;48.598;8.870;2023-02-04T04:25:42;8.00;99.90
23335;DHT22;11839;48.598;8.870;2023-02-04T04:28:10;7.90;99.90
23335;DHT22;11839;48.598;8.870;2023-02-04T04:30:37;7.90;99.90
23335;DHT22;11839;48.598;8.870;2023-02-04T04:33:03;8.10;99.90
23335;DHT22;11839;48.598;8.870;2023-02-04T04:35:30;8.00;99.90
23335;DHT22;11839;48.598;8.870;2023-02-04T04:37:57;8.00;99.90
23335;DHT22;11839;48.598;8.870;2023-02-04T04:40:24;8.20;99.90
23335;DHT22;11839;48.598;8.870;2023-02-04T04:42:52;8.20;99.90
23335;DHT22;11839;48.598;8.870;2023-02-04T04:45:20;8.10;99.90
23335;DHT22;11839;48.598;8.870;2023-02-04T04:47:47;8.10;99.90
23335;DHT22;11839;48.598;8.870;2023-02-04T04:50:14;8.10;99.90
23335;DHT22;11839;48.598;8.870;2023-02-04T04:52:40;8.10;99.90
23335;DHT22;11839;48.598;8.870;2023-02-04T04:55:07;7.70;99.90
23335;DHT22;11839;48.598;8.870;2023-02-04T04:57:34;7.40;99.90
23335;DHT22;11839;48.598;8.870;2023-02-04T05:00:03;7.40;99.90
23335;DHT22;11839;48.598;8.870;2023-02-04T05:02:30;7.50;99.90
23335;DHT22;11839;48.598;8.870;2023-02-04T05:04:57;7.50;99.90
23335;DHT22;11839;48.598;8.870;2023-02-04T05:07:24;7.40;99.90
23335;DHT22;11839;48.598;8.870;2023-02-04T05:09:52;7.40;99.90
23335;DHT22;11839;48.598;8.870;2023-02-04T05:12:18;7.40;99.90
23335;DHT22;11839;48.598;8.870;2023-02-04T05:14:45;7.20;99.90
23335;DHT22;11839;48.598;8.870;2023-02-04T05:17:13;7.00;99.90
23335;DHT22;11839;48.598;8.870;2023-02-04T05:19:40;6.90;99.90
23335;DHT22;11839;48.598;8.870;2023-02-04T05:22:07;6.80;99.90
23335;DHT22;11839;48.598;8.870;2023-02-04T05:24:34;6.70;99.90
23335;DHT22;11839;48.598;8.870;2023-02-04T05:27:00;6.70;99.90
23335;DHT22;11839;48.598;8.870;2023-02-04T05:29:27;6.70;99.90
23335;DHT22;11839;48.598;8.870;2023-02-04T05:31:54;6.70;99.90
23335;DHT22;11839;48.598;8.870;2023-02-04T05:34:22;6.90;99.90
23335;DHT22;11839;48.598;8.870;2023-02-04T05:36:49;6.80;99.90
23335;DHT22;11839;48.598;8.870;2023-02-04T05:39:16;6.90;99.90
23335;DHT22;11839;48.598;8.870;2023-02-04T05:41:42;7.10;99.90
23335;DHT22;11839;48.598;8.870;2023-02-04T05:44:09;7.10;99.90
23335;DHT22;11839;48.598;8.870;2023-02-04T05:46:36;7.30;99.90
23335;DHT22;11839;48.598;8.870;2023-02-04T05:49:03;7.30;99.90
23335;DHT22;11839;48.598;8.870;2023-02-04T05:51:33;7.30;99.90
23335;DHT22;11839;48.598;8.870;2023-02-04T05:54:00;7.30;99.90
23335;DHT22;11839;48.598;8.870;2023-02-04T05:56:27;7.50;99.90
23335;DHT22;11839;48.598;8.870;2023-02-04T05:58:54;7.40;99.90
23335;DHT22;11839;48.598;8.870;2023-02-04T06:01:21;7.30;99.90
23335;DHT22;11839;48.598;8.870;2023-02-04T06:03:48;7.60;99.90
23335;DHT22;11839;48.598;8.870;2023-02-04T06:06:15;7.70;99.90
23335;DHT22;11839;48.598;8.870;2023-02-04T06:08:43;7.90;99.90
23335;DHT22;11839;48.598;8.870;2023-02-04T06:11:09;8.00;99.90
23335;DHT22;11839;48.598;8.870;2023-02-04T06:13:36;8.00;99.90
23335;DHT22;11839;48.598;8.870;2023-02-04T06:16:03;8.00;99.90
23335;DHT22;11839;48.598;8.870;2023-02-04T06:18:30;8.10;99.90
23335;DHT22;11839;48.598;8.870;2023-02-04T06:20:57;7.90;99.90
23335;DHT22;11839;48.598;8.870;2023-02-04T06:23:23;7.90;99.90
23335;DHT22;11839;48.598;8.870;2023-02-04T06:25:52;8.10;99.90
23335;DHT22;11839;48.598;8.870;2023-02-04T06:28:19;8.20;99.90
23335;DHT22;11839;48.598;8.870;2023-02-04T06:30:46;8.20;99.90
23335;DHT22;11839;48.598;8.870;2023-02-04T06:33:13;8.20;99.90
23335;DHT22;11839;48.598;8.870;2023-02-04T06:35:40;8.20;99.90
23335;DHT22;11839;48.598;8.870;2023-02-04T06:38:07;8.30;99.90
23335;DHT22;11839;48.598;8.870;2023-02-04T06:40:34;8.30;99.90
23335;DHT22;11839;48.598;8.870;2023-02-04T06:43:02;8.20;99.90
23335;DHT22;11839;48.598;8.870;2023-02-04T06:45:28;8.20;99.90
23335;DHT22;11839;48.598;8.870;2023-02-04T06:47:55;8.40;99.90
23335;DHT22;11839;48.598;8.870;2023-02-04T06:50:22;8.40;99.90
23335;DHT22;11839;48.598;8.870;2023-02-04T06:52:49;8.50;99.90
23335;DHT22;11839;48.598;8.870;2023-02-04T06:55:16;8.40;99.90
23335;DHT22;11839;48.598;8.870;2023-02-04T06:57:43;8.50;99.90
23335;DHT22;11839;48.598;8.870;2023-02-04T07:00:12;8.40;99.90
23335;DHT22;11839;48.598;8.870;2023-02-04T07:02:39;8.30;99.90
23335;DHT22;11839;48.598;8.870;2023-02-04T07:05:07;8.00;99.90
23335;DHT22;11839;48.598;8.870;2023-02-04T07:07:34;7.90;99.90
23335;DHT22;11839;48.598;8.870;2023-02-04T07:10:01;7.80;99.90
23335;DHT22;11839;48.598;8.870;2023-02-04T07:12:27;7.90;99.90
23335;DHT22;11839;48.598;8.870;2023-02-04T07:14:54;7.90;99.90
23335;DHT22;11839;48.598;8.870;2023-02-04T07:17:22;7.80;99.90
23335;DHT22;11839;48.598;8.870;2023-02-04T07:19:49;8.00;99.90
23335;DHT22;11839;48.598;8.870;2023-02-04T07:22:17;8.10;99.90
23335;DHT22;11839;48.598;8.870;2023-02-04T07:24:44;8.20;99.90
23335;DHT22;11839;48.598;8.870;2023-02-04T07:27:10;8.30;99.90
23335;DHT22;11839;48.598;8.870;2023-02-04T07:29:37;8.30;99.90
23335;DHT22;11839;48.598;8.870;2023-02-04T07:32:04;8.00;99.90
23335;DHT22;11839;48.598;8.870;2023-02-04T07:34:32;7.90;99.90
23335;DHT22;11839;48.598;8.870;2023-02-04T07:36:59;8.00;99.90
23335;DHT22;11839;48.598;8.870;2023-02-04T07:39:26;7.90;99.90
23335;DHT22;11839;48.598;8.870;2023-02-04T07:41:53;7.80;99.90
23335;DHT22;11839;48.598;8.870;2023-02-04T07:44:19;8.00;99.90
23335;DHT22;11839;48.598;8.870;2023-02-04T07:46:46;8.30;99.90
23335;DHT22;11839;48.598;8.870;2023-02-04T07:49:13;8.40;99.90
23335;DHT22;11839;48.598;8.870;2023-02-04T07:51:41;8.40;99.90
23335;DHT22;11839;48.598;8.870;2023-02-04T07:54:08;8.30;99.90
23335;DHT22;11839;48.598;8.870;2023-02-04T07:56:34;8.00;99.90
23335;DHT22;11839;48.598;8.870;2023-02-04T07:59:01;7.80;99.90
23335;DHT22;11839;48.598;8.870;2023-02-04T08:01:28;7.90;99.90
23335;DHT22;11839;48.598;8.870;2023-02-04T08:03:55;8.00;99.90
23335;DHT22;11839;48.598;8.870;2023-02-04T08:06:21;8.00;99.90
23335;DHT22;11839;48.598;8.870;2023-02-04T08:08:49;8.00;99.90
23335;DHT22;11839;48.598;8.870;2023-02-04T08:11:16;8.10;99.90
23335;DHT22;11839;48.598;8.870;2023-02-04T08:13:43;7.90;99.90
23335;DHT22;11839;48.598;8.870;2023-02-04T08:16:10;7.90;99.90
23335;DHT22;11839;48.598;8.870;2023-02-04T08:18:36;7.90;99.90
23335;DHT22;11839;48.598;8.870;2023-02-04T08:21:03;7.70;99.90
23335;DHT22;11839;48.598;8.870;2023-02-04T08:23:30;7.90;99.90
23335;DHT22;11839;48.598;8.870;2023-02-04T08:25:59;8.10;99.90
23335;DHT22;11839;48.598;8.870;2023-02-04T08:28:26;8.30;99.90
23335;DHT22;11839;48.598;8.870;2023-02-04T08:30:53;8.00;99.90
23335;DHT22;11839;48.598;8.870;2023-02-04T08:33:20;7.90;99.90
23335;DHT22;11839;48.598;8.870;2023-02-04T08:35:47;8.30;99.90
23335;DHT22;11839;48.598;8.870;2023-02-04T08:38:14;8.60;99.90
23335;DHT22;11839;48.598;8.870;2023-02-04T08:40:41;8.60;99.90
23335;DHT22;11839;48.598;8.870;2023-02-04T08:43:09;8.80;99.90
23335;DHT22;11839;48.598;8.870;2023-02-04T08:45:36;8.60;99.90
23335;DHT22;11839;48.598;8.870;2023-02-04T08:48:03;8.40;99.90
23335;DHT22;11839;48.598;8.870;2023-02-04T08:50:31;8.30;99.90
23335;DHT22;11839;48.598;8.870;2023-02-04T08:52:57;8.40;99.90
23335;DHT22;11839;48.598;8.870;2023-02-04T08:55:24;8.60;99.90
23335;DHT22;11839;48.598;8.870;2023-02-04T08:57:51;8.70;99.90
23335;DHT22;11839;48.598;8.870;2023-02-04T09:00:20;8.70;99.90
23335;DHT22;11839;48.598;8.870;2023-02-04T09:02:47;8.70;99.90
23335;DHT22;11839;48.598;8.870;2023-02-04T09:05:14;8.60;99.90
23335;DHT22;11839;48.598;8.870;2023-02-04T09:07:40;8.60;99.90
23335;DHT22;11839;48.598;8.870;2023-02-04T09:10:08;8.60;99.90
23335;DHT22;11839;48.598;8.870;2023-02-04T09:12:34;8.40;99.90
23335;DHT22;11839;48.598;8.870;2023-02-04T09:15:01;8.50;99.90
23335;DHT22;11839;48.598;8.870;2023-02-04T09:17:29;8.70;99.90
23335;DHT22;11839;48.598;8.870;2023-02-04T09:19:56;8.50;99.90
23335;DHT22;11839;48.598;8.870;2023-02-04T09:22:23;8.20;99.90
23335;DHT22;11839;48.598;8.870;2023-02-04T09:24:50;8.10;99.90
23335;DHT22;11839;48.598;8.870;2023-02-04T09:27:16;8.40;99.90
23335;DHT22;11839;48.598;8.870;2023-02-04T09:29:44;8.60;99.90
23335;DHT22;11839;48.598;8.870;2023-02-04T09:32:10;8.60;99.90
23335;DHT22;11839;48.598;8.870;2023-02-04T09:34:39;8.60;99.90
23335;DHT22;11839;48.598;8.870;2023-02-04T09:37:05;8.70;99.90
23335;DHT22;11839;48.598;8.870;2023-02-04T09:39:32;9.10;99.90
23335;DHT22;11839;48.598;8.870;2023-02-04T09:41:59;8.80;99.90
23335;DHT22;11839;48.598;8.870;2023-02-04T09:44:26;8.80;99.90
23335;DHT22;11839;48.598;8.870;2023-02-04T09:46:55;8.80;99.90
23335;DHT22;11839;48.598;8.870;2023-02-04T09:49:24;8.70;99.90
23335;DHT22;11839;48.598;8.870;2023-02-04T09:51:53;8.70;99.90
23335;DHT22;11839;48.598;8.870;2023-02-04T09:54:21;8.50;99.90
23335;DHT22;11839;48.598;8.870;2023-02-04T09:56:49;8.40;99.90
23335;DHT22;11839;48.598;8.870;2023-02-04T09:59:18;8.50;99.90
23335;DHT22;11839;48.598;8.870;2023-02-04T10:01:47;8.90;99.90
23335;DHT22;11839;48.598;8.870;2023-02-04T10:04:14;8.90;99.90
23335;DHT22;11839;48.598;8.870;2023-02-04T10:06:42;8.70;99.90
23335;DHT22;11839;48.598;8.870;2023-02-04T10:09:12;8.50;99.90
23335;DHT22;11839;48.598;8.870;2023-02-04T10:11:40;8.40;99.90
23335;DHT22;11839;48.598;8.870;2023-02-04T10:14:12;8.70;99.90
23335;DHT22;11839;48.598;8.870;2023-02-04T10:16:40;8.90;99.90
23335;DHT22;11839;48.598;8.870;2023-02-04T10:19:12;8.80;99.90
23335;DHT22;11839;48.598;8.870;2023-02-04T10:21:39;8.80;99.90
23335;DHT22;11839;48.598;8.870;2023-02-04T10:24:12;8.70;99.90
23335;DHT22;11839;48.598;8.870;2023-02-04T10:26:40;9.10;99.90
23335;DHT22;11839;48.598;8.870;2023-02-04T10:29:12;9.20;99.90
23335;DHT22;11839;48.598;8.870;2023-02-04T10:31:40;9.30;99.90
23335;DHT22;11839;48.598;8.870;2023-02-04T10:34:12;9.40;99.90
23335;DHT22;11839;48.598;8.870;2023-02-04T10:36:41;9.50;99.90
23335;DHT22;11839;48.598;8.870;2023-02-04T10:39:14;9.40;99.90
23335;DHT22;11839;48.598;8.870;2023-02-04T10:41:47;9.60;99.90
23335;DHT22;11839;48.598;8.870;2023-02-04T10:44:16;9.70;99.90
23335;DHT22;11839;48.598;8.870;2023-02-04T10:46:43;9.70;99.90
23335;DHT22;11839;48.598;8.870;2023-02-04T10:49:17;9.50;99.90
23335;DHT22;11839;48.598;8.870;2023-02-04T10:51:45;9.20;99.90
23335;DHT22;11839;48.598;8.870;2023-02-04T10:54:13;9.30;99.90
23335;DHT22;11839;48.598;8.870;2023-02-04T10:56:56;9.40;99.90
23335;DHT22;11839;48.598;8.870;2023-02-04T10:59:25;9.40;99.90
23335;DHT22;11839;48.598;8.870;2023-02-04T11:01:52;9.20;99.90
23335;DHT22;11839;48.598;8.870;2023-02-04T11:04:20;9.10;99.90
23335;DHT22;11839;48.598;8.870;2023-02-04T11:06:47;9.00;99.90
23335;DHT22;11839;48.598;8.870;2023-02-04T11:09:15;8.80;99.90
23335;DHT22;11839;48.598;8.870;2023-02-04T11:11:45;8.40;99.90
23335;DHT22;11839;48.598;8.870;2023-02-04T11:14:24;8.50;99.90
23335;DHT22;11839;48.598;8.870;2023-02-04T11:16:53;8.80;99.90
23335;DHT22;11839;48.598;8.870;2023-02-04T11:19:34;9.00;99.90
23335;DHT22;11839;48.598;8.870;2023-02-04T11:22:20;9.00;99.90
23335;DHT22;11839;48.598;8.870;2023-02-04T11:24:49;9.20;99.90
23335;DHT22;11839;48.598;8.870;2023-02-04T11:27:24;9.30;99.90
23335;DHT22;11839;48.598;8.870;2023-02-04T11:30:03;9.30;99.90
23335;DHT22;11839;48.598;8.870;2023-02-04T11:32:32;9.10;99.90
23335;DHT22;11839;48.598;8.870;2023-02-04T11:35:20;8.80;99.90
23335;DHT22;11839;48.598;8.870;2023-02-04T11:37:47;8.90;99.90
23335;DHT22;11839;48.598;8.870;2023-02-04T11:40:28;8.90;99.90
23335;DHT22;11839;48.598;8.870;2023-02-04T11:43:00;9.00;99.90
23335;DHT22;11839;48.598;8.870;2023-02-04T11:45:30;9.00;99.90
23335;DHT22;11839;48.598;8.870;2023-02-04T11:47:59;9.10;99.90
23335;DHT22;11839;48.598;8.870;2023-02-04T11:50:28;9.50;99.90
23335;DHT22;11839;48.598;8.870;2023-02-04T11:52:56;9.40;99.90
23335;DHT22;11839;48.598;8.870;2023-02-04T11:55:25;9.20;99.90
23335;DHT22;11839;48.598;8.870;2023-02-04T11:57:53;9.30;99.90
23335;DHT22;11839;48.598;8.870;2023-02-04T12:00:22;9.30;99.90
23335;DHT22;11839;48.598;8.870;2023-02-04T12:02:53;9.50;99.90
23335;DHT22;11839;48.598;8.870;2023-02-04T12:05:21;9.60;99.90
23335;DHT22;11839;48.598;8.870;2023-02-04T12:07:48;9.60;99.90
23335;DHT22;11839;48.598;8.870;2023-02-04T12:10:22;9.60;99.90
23335;DHT22;11839;48.598;8.870;2023-02-04T12:12:52;9.50;99.90
23335;DHT22;11839;48.598;8.870;2023-02-04T12:15:23;9.80;99.90
23335;DHT22;11839;48.598;8.870;2023-02-04T12:18:01;9.90;99.90
23335;DHT22;11839;48.598;8.870;2023-02-04T12:20:28;9.80;99.90
23335;DHT22;11839;48.598;8.870;2023-02-04T12:22:55;9.40;99.90
23335;DHT22;11839;48.598;8.870;2023-02-04T12:25:22;9.40;99.90
23335;DHT22;11839;48.598;8.870;2023-02-04T12:27:52;9.70;99.90
23335;DHT22;11839;48.598;8.870;2023-02-04T12:30:20;10.10;99.90
23335;DHT22;11839;48.598;8.870;2023-02-04T12:32:47;10.30;99.90
23335;DHT22;11839;48.598;8.870;2023-02-04T12:35:14;10.60;99.60
23335;DHT22;11839;48.598;8.870;2023-02-04T12:37:41;10.80;99.90
23335;DHT22;11839;48.598;8.870;2023-02-04T12:40:09;10.60;99.90
23335;DHT22;11839;48.598;8.870;2023-02-04T12:42:39;10.40;99.90
23335;DHT22;11839;48.598;8.870;2023-02-04T12:45:08;10.50;99.90
23335;DHT22;11839;48.598;8.870;2023-02-04T12:47:35;10.60;99.90
23335;DHT22;11839;48.598;8.870;2023-02-04T12:50:02;10.30;99.90
23335;DHT22;11839;48.598;8.870;2023-02-04T12:52:29;10.00;99.90
23335;DHT22;11839;48.598;8.870;2023-02-04T12:54:55;9.80;99.90
23335;DHT22;11839;48.598;8.870;2023-02-04T12:57:23;9.70;99.90
23335;DHT22;11839;48.598;8.870;2023-02-04T12:59:50;9.60;99.90
23335;DHT22;11839;48.598;8.870;2023-02-04T13:02:18;9.80;99.90
23335;DHT22;11839;48.598;8.870;2023-02-04T13:04:45;10.10;99.90
23335;DHT22;11839;48.598;8.870;2023-02-04T13:07:11;10.00;99.90
23335;DHT22;11839;48.598;8.870;2023-02-04T13:09:38;9.70;99.90
23335;DHT22;11839;48.598;8.870;2023-02-04T13:12:05;9.70;99.90
23335;DHT22;11839;48.598;8.870;2023-02-04T13:14:32;9.50;99.90
23335;DHT22;11839;48.598;8.870;2023-02-04T13:16:59;9.50;99.90
23335;DHT22;11839;48.598;8.870;2023-02-04T13:19:27;9.60;99.90
23335;DHT22;11839;48.598;8.870;2023-02-04T13:21:54;9.70;99.90
23335;DHT22;11839;48.598;8.870;2023-02-04T13:24:20;9.90;99.90
23335;DHT22;11839;48.598;8.870;2023-02-04T13:26:47;9.60;99.90
23335;DHT22;11839;48.598;8.870;2023-02-04T13:29:14;9.60;99.90
23335;DHT22;11839;48.598;8.870;2023-02-04T13:31:41;10.10;99.50
23335;DHT22;11839;48.598;8.870;2023-02-04T13:34:07;10.00;99.80
23335;DHT22;11839;48.598;8.870;2023-02-04T13:36:35;9.60;99.90
23335;DHT22;11839;48.598;8.870;2023-02-04T13:39:03;9.30;99.90
23335;DHT22;11839;48.598;8.870;2023-02-04T13:41:30;9.50;99.90
23335;DHT22;11839;48.598;8.870;2023-02-04T13:43:57;9.60;99.90
23335;DHT22;11839;48.598;8.870;2023-02-04T13:46:24;9.50;99.90
23335;DHT22;11839;48.598;8.870;2023-02-04T13:48:50;9.50;99.90
23335;DHT22;11839;48.598;8.870;2023-02-04T13:51:17;9.80;99.90
23335;DHT22;11839;48.598;8.870;2023-02-04T13:53:46;10.10;99.90
23335;DHT22;11839;48.598;8.870;2023-02-04T13:56:12;10.10;99.70
23335;DHT22;11839;48.598;8.870;2023-02-04T13:58:39;10.30;99.60
23335;DHT22;11839;48.598;8.870;2023-02-04T14:01:08;10.40;99.70
23335;DHT22;11839;48.598;8.870;2023-02-04T14:03:35;10.10;99.50
23335;DHT22;11839;48.598;8.870;2023-02-04T14:06:02;9.70;99.90
23335;DHT22;11839;48.598;8.870;2023-02-04T14:08:30;9.80;99.90
23335;DHT22;11839;48.598;8.870;2023-02-04T14:10:58;9.80;99.90
23335;DHT22;11839;48.598;8.870;2023-02-04T14:13:25;9.80;99.90
23335;DHT22;11839;48.598;8.870;2023-02-04T14:15:52;9.90;99.90
23335;DHT22;11839;48.598;8.870;2023-02-04T14:18:19;9.70;99.50
23335;DHT22;11839;48.598;8.870;2023-02-04T14:20:46;9.60;99.90
23335;DHT22;11839;48.598;8.870;2023-02-04T14:23:12;9.50;99.70
23335;DHT22;11839;48.598;8.870;2023-02-04T14:25:39;9.50;99.90
23335;DHT22;11839;48.598;8.870;2023-02-04T14:28:07;9.60;99.90
23335;DHT22;11839;48.598;8.870;2023-02-04T14:30:34;9.60;99.90
23335;DHT22;11839;48.598;8.870;2023-02-04T14:33:02;9.50;99.90
23335;DHT22;11839;48.598;8.870;2023-02-04T14:35:30;9.60;99.90
23335;DHT22;11839;48.598;8.870;2023-02-04T14:37:57;9.50;99.90
23335;DHT22;11839;48.598;8.870;2023-02-04T14:40:24;9.40;99.90
23335;DHT22;11839;48.598;8.870;2023-02-04T14:42:51;9.40;99.90
23335;DHT22;11839;48.598;8.870;2023-02-04T14:45:19;9.50;99.90
23335;DHT22;11839;48.598;8.870;2023-02-04T14:47:45;9.20;99.90
23335;DHT22;11839;48.598;8.870;2023-02-04T14:50:14;9.30;99.90
23335;DHT22;11839;48.598;8.870;2023-02-04T14:52:41;9.00;99.90
23335;DHT22;11839;48.598;8.870;2023-02-04T14:55:08;9.10;99.40
23335;DHT22;11839;48.598;8.870;2023-02-04T14:57:37;9.50;99.60
23335;DHT22;11839;48.598;8.870;2023-02-04T15:00:04;9.50;99.40
23335;DHT22;11839;48.598;8.870;2023-02-04T15:02:33;9.40;99.60
23335;DHT22;11839;48.598;8.870;2023-02-04T15:05:00;9.10;99.60
23335;DHT22;11839;48.598;8.870;2023-02-04T15:07:27;9.10;99.90
23335;DHT22;11839;48.598;8.870;2023-02-04T15:09:54;9.30;99.90
23335;DHT22;11839;48.598;8.870;2023-02-04T15:12:20;9.20;99.90
23335;DHT22;11839;48.598;8.870;2023-02-04T15:14:47;9.60;99.90
23335;DHT22;11839;48.598;8.870;2023-02-04T15:17:14;9.70;99.30
23335;DHT22;11839;48.598;8.870;2023-02-04T15:19:42;9.90;98.90
23335;DHT22;11839;48.598;8.870;2023-02-04T15:22:09;9.70;98.60
23335;DHT22;11839;48.598;8.870;2023-02-04T15:24:37;9.40;98.90
23335;DHT22;11839;48.598;8.870;2023-02-04T15:27:04;9.20;99.80
23335;DHT22;11839;48.598;8.870;2023-02-04T15:29:31;9.50;99.70
23335;DHT22;11839;48.598;8.870;2023-02-04T15:31:58;9.50;99.10
23335;DHT22;11839;48.598;8.870;2023-02-04T15:34:25;9.70;98.50
23335;DHT22;11839;48.598;8.870;2023-02-04T15:36:53;9.50;98.80
23335;DHT22;11839;48.598;8.870;2023-02-04T15:39:20;9.60;99.60
23335;DHT22;11839;48.598;8.870;2023-02-04T15:41:46;9.80;99.50
23335;DHT22;11839;48.598;8.870;2023-02-04T15:44:13;9.80;99.60
23335;DHT22;11839;48.598;8.870;2023-02-04T15:46:40;9.70;99.90
23335;DHT22;11839;48.598;8.870;2023-02-04T15:49:06;9.90;99.70